sensor_id;sensor_type;location;lat;lon;timestamp;pressure;altitude;pressure_sealevel;temperature;humidity
7109;BME280;29079;41.930;25.558;2023-02-02T00:02:12;99685.31;;;1.89;70.66
7109;BME280;29079;41.930;25.558;2023-02-02T00:04:45;99692.75;;;1.81;70.96
7109;BME280;29079;41.930;25.558;2023-02-02T00:07:20;99685.56;;;1.85;70.95
7109;BME280;29079;41.930;25.558;2023-02-02T00:09:54;99688.03;;;1.88;71.58
7109;BME280;29079;41.930;25.558;2023-02-02T00:12:28;99632.84;;;1.51;71.54
7109;BME280;29079;41.930;25.558;2023-02-02T00:15:01;99690.59;;;1.89;71.58
7109;BME280;29079;41.930;25.558;2023-02-02T00:17:35;99684.69;;;1.84;71.66
7109;BME280;29079;41.930;25.558;2023-02-02T00:20:09;99688.03;;;1.88;72.21
7109;BME280;29079;41.930;25.558;2023-02-02T00:22:45;99685.63;;;1.83;71.51
7109;BME280;29079;41.930;25.558;2023-02-02T00:25:18;99680.38;;;1.83;71.68
7109;BME280;29079;41.930;25.558;2023-02-02T00:27:52;99677.41;;;1.72;71.47
7109;BME280;29079;41.930;25.558;2023-02-02T00:30:25;99677.81;;;1.64;72.77
7109;BME280;29079;41.930;25.558;2023-02-02T00:32:59;99676.69;;;1.68;73.07
7109;BME280;29079;41.930;25.558;2023-02-02T00:35:32;99681.59;;;1.76;72.72
7109;BME280;29079;41.930;25.558;2023-02-02T00:38:07;99684.59;;;1.68;72.70
7109;BME280;29079;41.930;25.558;2023-02-02T00:40:41;99683.16;;;1.80;72.26
7109;BME280;29079;41.930;25.558;2023-02-02T00:43:14;99683.75;;;1.85;71.97
7109;BME280;29079;41.930;25.558;2023-02-02T00:45:48;99663.03;;;1.62;71.69
7109;BME280;29079;41.930;25.558;2023-02-02T00:48:21;99683.25;;;1.79;72.03
7109;BME280;29079;41.930;25.558;2023-02-02T00:50:57;99693.38;;;1.86;71.96
7109;BME280;29079;41.930;25.558;2023-02-02T00:53:31;99691.41;;;1.72;72.60
7109;BME280;29079;41.930;25.558;2023-02-02T00:56:05;99685.16;;;1.75;72.43
7109;BME280;29079;41.930;25.558;2023-02-02T00:58:39;99692.41;;;1.70;71.77
7109;BME280;29079;41.930;25.558;2023-02-02T01:01:14;99677.09;;;1.78;71.61
7109;BME280;29079;41.930;25.558;2023-02-02T01:03:48;99682.38;;;1.78;71.26
7109;BME280;29079;41.930;25.558;2023-02-02T01:06:22;99688.25;;;1.66;71.86
7109;BME280;29079;41.930;25.558;2023-02-02T01:08:57;99691.25;;;1.76;71.70
7109;BME280;29079;41.930;25.558;2023-02-02T01:11:31;99705.28;;;1.76;70.33
7109;BME280;29079;41.930;25.558;2023-02-02T01:14:04;99689.09;;;1.84;71.02
7109;BME280;29079;41.930;25.558;2023-02-02T01:16:38;99691.19;;;1.77;69.62
7109;BME280;29079;41.930;25.558;2023-02-02T01:19:12;99698.31;;;1.75;69.43
7109;BME280;29079;41.930;25.558;2023-02-02T01:21:45;99695.59;;;1.77;69.51
7109;BME280;29079;41.930;25.558;2023-02-02T01:24:20;99688.88;;;1.71;69.76
7109;BME280;29079;41.930;25.558;2023-02-02T01:26:54;99694.75;;;1.76;70.41
7109;BME280;29079;41.930;25.558;2023-02-02T01:29:28;99685.06;;;1.77;70.34
7109;BME280;29079;41.930;25.558;2023-02-02T01:32:01;99689.03;;;1.85;69.43
7109;BME280;29079;41.930;25.558;2023-02-02T01:34:35;99689.94;;;1.84;69.62
7109;BME280;29079;41.930;25.558;2023-02-02T01:37:12;99688.44;;;1.80;69.60
7109;BME280;29079;41.930;25.558;2023-02-02T01:39:47;99695.44;;;1.80;69.56
7109;BME280;29079;41.930;25.558;2023-02-02T01:42:22;99696.69;;;1.90;68.75
7109;BME280;29079;41.930;25.558;2023-02-02T01:45:16;99698.47;;;1.89;69.21
7109;BME280;29079;41.930;25.558;2023-02-02T01:47:51;99697.84;;;1.84;69.28
7109;BME280;29079;41.930;25.558;2023-02-02T01:50:29;99698.94;;;1.98;69.08
7109;BME280;29079;41.930;25.558;2023-02-02T01:53:04;99697.56;;;1.90;69.05
7109;BME280;29079;41.930;25.558;2023-02-02T01:55:40;99692.91;;;1.96;69.57
7109;BME280;29079;41.930;25.558;2023-02-02T01:58:17;99672.41;;;1.85;69.49
7109;BME280;29079;41.930;25.558;2023-02-02T02:00:52;99695.22;;;2.02;69.53
7109;BME280;29079;41.930;25.558;2023-02-02T02:03:29;99687.19;;;2.05;70.55
7109;BME280;29079;41.930;25.558;2023-02-02T02:06:06;99702.34;;;2.00;71.06
7109;BME280;29079;41.930;25.558;2023-02-02T02:08:46;99700.47;;;2.02;70.12
7109;BME280;29079;41.930;25.558;2023-02-02T02:11:25;99697.72;;;2.05;69.77
7109;BME280;29079;41.930;25.558;2023-02-02T02:14:03;99697.63;;;2.06;69.42
7109;BME280;29079;41.930;25.558;2023-02-02T02:17:22;99693.53;;;2.01;68.93
7109;BME280;29079;41.930;25.558;2023-02-02T02:20:27;99689.56;;;2.09;70.17
7109;BME280;29079;41.930;25.558;2023-02-02T02:23:48;99697.41;;;2.11;70.58
7109;BME280;29079;41.930;25.558;2023-02-02T02:27:23;99697.31;;;2.13;70.54
7109;BME280;29079;41.930;25.558;2023-02-02T02:30:08;99700.03;;;2.11;71.58
7109;BME280;29079;41.930;25.558;2023-02-02T02:32:48;99701.56;;;2.15;71.55
7109;BME280;29079;41.930;25.558;2023-02-02T02:35:31;99703.72;;;2.24;72.05
7109;BME280;29079;41.930;25.558;2023-02-02T02:38:11;99702.47;;;2.32;72.26
7109;BME280;29079;41.930;25.558;2023-02-02T02:40:50;99699.91;;;2.48;72.69
7109;BME280;29079;41.930;25.558;2023-02-02T02:43:30;99688.19;;;2.53;72.45
7109;BME280;29079;41.930;25.558;2023-02-02T02:46:06;99693.22;;;2.58;71.42
7109;BME280;29079;41.930;25.558;2023-02-02T02:48:43;99692.28;;;2.59;72.48
7109;BME280;29079;41.930;25.558;2023-02-02T02:51:39;99696.09;;;2.53;71.65
7109;BME280;29079;41.930;25.558;2023-02-02T02:54:16;99688.94;;;2.55;72.23
7109;BME280;29079;41.930;25.558;2023-02-02T02:57:02;99684.38;;;2.59;72.34
7109;BME280;29079;41.930;25.558;2023-02-02T02:59:47;99685.31;;;2.58;72.22
7109;BME280;29079;41.930;25.558;2023-02-02T03:02:32;99683.44;;;2.60;72.51
7109;BME280;29079;41.930;25.558;2023-02-02T03:05:20;99678.19;;;2.60;72.93
7109;BME280;29079;41.930;25.558;2023-02-02T03:08:12;99674.69;;;2.59;73.18
7109;BME280;29079;41.930;25.558;2023-02-02T03:10:47;99672.50;;;2.68;72.50
7109;BME280;29079;41.930;25.558;2023-02-02T03:13:21;99677.69;;;2.85;70.56
7109;BME280;29079;41.930;25.558;2023-02-02T03:15:55;99672.34;;;2.87;70.71
7109;BME280;29079;41.930;25.558;2023-02-02T03:18:30;99670.63;;;2.86;71.52
7109;BME280;29079;41.930;25.558;2023-02-02T03:21:06;99673.78;;;2.92;70.14
7109;BME280;29079;41.930;25.558;2023-02-02T03:23:40;99670.72;;;3.00;69.45
7109;BME280;29079;41.930;25.558;2023-02-02T03:26:13;99669.44;;;3.07;68.42
7109;BME280;29079;41.930;25.558;2023-02-02T03:28:48;99670.63;;;3.18;67.96
7109;BME280;29079;41.930;25.558;2023-02-02T03:31:22;99670.81;;;3.14;67.92
7109;BME280;29079;41.930;25.558;2023-02-02T03:33:57;99661.97;;;3.16;68.10
7109;BME280;29079;41.930;25.558;2023-02-02T03:36:32;99670.16;;;3.11;67.76
7109;BME280;29079;41.930;25.558;2023-02-02T03:39:06;99675.41;;;3.11;67.73
7109;BME280;29079;41.930;25.558;2023-02-02T03:41:39;99676.53;;;3.07;68.36
7109;BME280;29079;41.930;25.558;2023-02-02T03:44:12;99670.63;;;3.02;68.50
7109;BME280;29079;41.930;25.558;2023-02-02T03:46:46;99664.78;;;2.96;69.29
7109;BME280;29079;41.930;25.558;2023-02-02T03:49:19;99669.72;;;2.87;69.00
7109;BME280;29079;41.930;25.558;2023-02-02T03:51:53;99673.25;;;2.86;69.73
7109;BME280;29079;41.930;25.558;2023-02-02T03:54:28;99668.16;;;2.83;69.29
7109;BME280;29079;41.930;25.558;2023-02-02T03:57:01;99670.97;;;2.79;68.98
7109;BME280;29079;41.930;25.558;2023-02-02T03:59:35;99675.63;;;2.74;69.08
7109;BME280;29079;41.930;25.558;2023-02-02T04:02:09;99665.50;;;2.67;69.10
7109;BME280;29079;41.930;25.558;2023-02-02T04:04:42;99659.97;;;2.71;69.44
7109;BME280;29079;41.930;25.558;2023-02-02T04:07:17;99668.06;;;2.68;69.26
7109;BME280;29079;41.930;25.558;2023-02-02T04:09:51;99672.91;;;2.60;69.54
7109;BME280;29079;41.930;25.558;2023-02-02T04:12:25;99681.50;;;2.64;70.12
7109;BME280;29079;41.930;25.558;2023-02-02T04:14:59;99676.31;;;2.62;70.83
7109;BME280;29079;41.930;25.558;2023-02-02T04:17:32;99678.94;;;2.62;70.17
7109;BME280;29079;41.930;25.558;2023-02-02T04:20:07;99686.56;;;2.51;70.54
7109;BME280;29079;41.930;25.558;2023-02-02T04:22:41;99680.44;;;2.50;71.64
7109;BME280;29079;41.930;25.558;2023-02-02T04:25:15;99675.34;;;2.47;71.03
7109;BME280;29079;41.930;25.558;2023-02-02T04:27:49;99685.25;;;2.42;70.76
7109;BME280;29079;41.930;25.558;2023-02-02T04:30:23;99681.63;;;2.44;71.48
7109;BME280;29079;41.930;25.558;2023-02-02T04:32:56;99676.16;;;2.32;72.29
7109;BME280;29079;41.930;25.558;2023-02-02T04:35:30;99680.66;;;2.30;72.28
7109;BME280;29079;41.930;25.558;2023-02-02T04:38:04;99683.41;;;2.26;71.92
7109;BME280;29079;41.930;25.558;2023-02-02T04:40:38;99681.91;;;2.22;72.17
7109;BME280;29079;41.930;25.558;2023-02-02T04:43:12;99681.81;;;2.24;72.12
7109;BME280;29079;41.930;25.558;2023-02-02T04:45:45;99681.91;;;2.22;72.36
7109;BME280;29079;41.930;25.558;2023-02-02T04:48:19;99684.44;;;2.24;72.41
7109;BME280;29079;41.930;25.558;2023-02-02T04:50:57;99676.56;;;2.24;72.11
7109;BME280;29079;41.930;25.558;2023-02-02T04:53:33;99688.25;;;2.18;71.80
7109;BME280;29079;41.930;25.558;2023-02-02T04:56:10;99679.19;;;2.24;71.66
7109;BME280;29079;41.930;25.558;2023-02-02T04:58:44;99686.22;;;2.23;71.84
7109;BME280;29079;41.930;25.558;2023-02-02T05:01:18;99678.03;;;2.30;71.63
7109;BME280;29079;41.930;25.558;2023-02-02T05:03:52;99674.34;;;2.32;71.09
7109;BME280;29079;41.930;25.558;2023-02-02T05:06:26;99674.34;;;2.32;70.81
7109;BME280;29079;41.930;25.558;2023-02-02T05:09:00;99680.16;;;2.39;70.87
7109;BME280;29079;41.930;25.558;2023-02-02T05:11:34;99673.81;;;2.43;70.04
7109;BME280;29079;41.930;25.558;2023-02-02T05:14:10;99679.91;;;2.43;70.43
7109;BME280;29079;41.930;25.558;2023-02-02T05:16:44;99696.41;;;2.47;70.51
7109;BME280;29079;41.930;25.558;2023-02-02T05:19:18;99687.72;;;2.45;70.28
7109;BME280;29079;41.930;25.558;2023-02-02T05:21:51;99686.19;;;2.41;70.66
7109;BME280;29079;41.930;25.558;2023-02-02T05:24:26;99686.97;;;2.43;70.79
7109;BME280;29079;41.930;25.558;2023-02-02T05:27:01;99678.63;;;2.35;69.96
7109;BME280;29079;41.930;25.558;2023-02-02T05:29:34;99698.75;;;2.36;70.13
7109;BME280;29079;41.930;25.558;2023-02-02T05:32:07;99699.69;;;2.35;70.83
7109;BME280;29079;41.930;25.558;2023-02-02T05:34:41;99691.19;;;2.30;71.24
7109;BME280;29079;41.930;25.558;2023-02-02T05:37:14;99694.13;;;2.23;70.61
7109;BME280;29079;41.930;25.558;2023-02-02T05:39:52;99700.88;;;2.12;70.47
7109;BME280;29079;41.930;25.558;2023-02-02T05:42:26;99703.25;;;2.16;71.48
7109;BME280;29079;41.930;25.558;2023-02-02T05:44:59;99706.84;;;2.15;70.55
7109;BME280;29079;41.930;25.558;2023-02-02T05:47:33;99707.94;;;2.11;71.58
7109;BME280;29079;41.930;25.558;2023-02-02T05:50:07;99703.06;;;2.03;71.70
7109;BME280;29079;41.930;25.558;2023-02-02T05:52:42;99696.84;;;2.04;72.73
7109;BME280;29079;41.930;25.558;2023-02-02T05:55:17;99708.00;;;2.09;73.08
7109;BME280;29079;41.930;25.558;2023-02-02T05:57:51;99706.28;;;2.08;72.93
7109;BME280;29079;41.930;25.558;2023-02-02T06:00:25;99711.47;;;2.10;72.41
7109;BME280;29079;41.930;25.558;2023-02-02T06:02:58;99710.47;;;2.13;73.29
7109;BME280;29079;41.930;25.558;2023-02-02T06:05:31;99725.44;;;2.12;72.57
7109;BME280;29079;41.930;25.558;2023-02-02T06:08:05;99709.69;;;2.11;72.59
7109;BME280;29079;41.930;25.558;2023-02-02T06:10:40;99715.75;;;2.13;73.24
7109;BME280;29079;41.930;25.558;2023-02-02T06:13:14;99717.22;;;2.18;72.59
7109;BME280;29079;41.930;25.558;2023-02-02T06:15:47;99718.97;;;2.18;73.00
7109;BME280;29079;41.930;25.558;2023-02-02T06:18:20;99718.59;;;2.25;73.23
7109;BME280;29079;41.930;25.558;2023-02-02T06:20:56;99699.88;;;2.14;73.40
7109;BME280;29079;41.930;25.558;2023-02-02T06:23:29;99728.97;;;2.29;72.89
7109;BME280;29079;41.930;25.558;2023-02-02T06:26:05;99711.06;;;2.18;72.54
7109;BME280;29079;41.930;25.558;2023-02-02T06:28:39;99739.03;;;2.38;72.80
7109;BME280;29079;41.930;25.558;2023-02-02T06:31:13;99733.47;;;2.44;72.75
7109;BME280;29079;41.930;25.558;2023-02-02T06:33:53;99668.75;;;2.05;72.51
7109;BME280;29079;41.930;25.558;2023-02-02T06:36:27;99738.84;;;2.58;72.72
7109;BME280;29079;41.930;25.558;2023-02-02T06:39:00;99734.19;;;2.64;72.59
7109;BME280;29079;41.930;25.558;2023-02-02T06:41:37;99734.03;;;2.67;72.27
7109;BME280;29079;41.930;25.558;2023-02-02T06:44:12;99741.72;;;2.87;70.56
7109;BME280;29079;41.930;25.558;2023-02-02T06:46:45;99735.72;;;3.17;68.19
7109;BME280;29079;41.930;25.558;2023-02-02T06:49:19;99737.84;;;3.58;66.08
7109;BME280;29079;41.930;25.558;2023-02-02T06:51:52;99737.25;;;3.69;65.12
7109;BME280;29079;41.930;25.558;2023-02-02T06:54:25;99730.97;;;3.86;63.66
7109;BME280;29079;41.930;25.558;2023-02-02T06:57:00;99732.56;;;4.05;63.61
7109;BME280;29079;41.930;25.558;2023-02-02T06:59:34;99738.91;;;4.16;63.02
7109;BME280;29079;41.930;25.558;2023-02-02T07:02:10;99735.47;;;4.30;62.28
7109;BME280;29079;41.930;25.558;2023-02-02T07:04:44;99741.72;;;4.58;60.23
7109;BME280;29079;41.930;25.558;2023-02-02T07:07:17;99750.06;;;4.81;59.52
7109;BME280;29079;41.930;25.558;2023-02-02T07:09:51;99742.22;;;4.79;59.73
7109;BME280;29079;41.930;25.558;2023-02-02T07:12:31;99742.59;;;4.87;59.20
7109;BME280;29079;41.930;25.558;2023-02-02T07:15:06;99742.38;;;4.91;59.12
7109;BME280;29079;41.930;25.558;2023-02-02T07:17:40;99727.59;;;4.88;59.10
7109;BME280;29079;41.930;25.558;2023-02-02T07:20:13;99749.97;;;5.11;58.80
7109;BME280;29079;41.930;25.558;2023-02-02T07:22:47;99742.06;;;5.24;58.45
7109;BME280;29079;41.930;25.558;2023-02-02T07:25:21;99739.78;;;5.32;57.78
7109;BME280;29079;41.930;25.558;2023-02-02T07:27:57;99740.91;;;5.43;57.22
7109;BME280;29079;41.930;25.558;2023-02-02T07:30:31;99749.03;;;5.39;57.95
7109;BME280;29079;41.930;25.558;2023-02-02T07:33:04;99742.50;;;5.45;58.16
7109;BME280;29079;41.930;25.558;2023-02-02T07:35:38;99740.50;;;5.49;57.79
7109;BME280;29079;41.930;25.558;2023-02-02T07:38:11;99748.44;;;5.49;58.09
7109;BME280;29079;41.930;25.558;2023-02-02T07:40:45;99745.75;;;5.63;57.39
7109;BME280;29079;41.930;25.558;2023-02-02T07:43:20;99749.41;;;5.75;57.17
7109;BME280;29079;41.930;25.558;2023-02-02T07:45:57;99751.69;;;5.81;57.21
7109;BME280;29079;41.930;25.558;2023-02-02T07:48:32;99749.97;;;5.80;56.30
7109;BME280;29079;41.930;25.558;2023-02-02T07:51:08;99751.72;;;5.94;56.28
7109;BME280;29079;41.930;25.558;2023-02-02T07:53:43;99752.19;;;6.01;56.21
7109;BME280;29079;41.930;25.558;2023-02-02T07:56:18;99735.34;;;6.02;55.47
7109;BME280;29079;41.930;25.558;2023-02-02T07:58:54;99748.31;;;6.19;56.36
7109;BME280;29079;41.930;25.558;2023-02-02T08:01:28;99752.47;;;6.23;55.40
7109;BME280;29079;41.930;25.558;2023-02-02T08:04:02;99749.50;;;6.41;54.84
7109;BME280;29079;41.930;25.558;2023-02-02T08:06:37;99750.69;;;6.50;53.17
7109;BME280;29079;41.930;25.558;2023-02-02T08:09:11;99751.19;;;6.55;52.41
7109;BME280;29079;41.930;25.558;2023-02-02T08:11:47;99748.25;;;6.72;52.40
7109;BME280;29079;41.930;25.558;2023-02-02T08:14:22;99749.94;;;6.86;50.82
7109;BME280;29079;41.930;25.558;2023-02-02T08:16:55;99742.91;;;6.98;51.12
7109;BME280;29079;41.930;25.558;2023-02-02T08:19:29;99739.09;;;7.02;49.60
7109;BME280;29079;41.930;25.558;2023-02-02T08:22:02;99742.78;;;7.12;49.98
7109;BME280;29079;41.930;25.558;2023-02-02T08:24:36;99745.44;;;7.25;49.38
7109;BME280;29079;41.930;25.558;2023-02-02T08:27:11;99736.91;;;7.33;48.83
7109;BME280;29079;41.930;25.558;2023-02-02T08:29:46;99738.59;;;7.34;49.92
7109;BME280;29079;41.930;25.558;2023-02-02T08:32:20;99730.94;;;7.42;49.47
7109;BME280;29079;41.930;25.558;2023-02-02T08:34:54;99722.81;;;7.57;48.66
7109;BME280;29079;41.930;25.558;2023-02-02T08:37:27;99739.78;;;7.67;47.53
7109;BME280;29079;41.930;25.558;2023-02-02T08:40:00;99723.63;;;7.70;48.40
7109;BME280;29079;41.930;25.558;2023-02-02T08:42:34;99725.09;;;7.74;47.28
7109;BME280;29079;41.930;25.558;2023-02-02T08:45:09;99721.75;;;7.83;47.72
7109;BME280;29079;41.930;25.558;2023-02-02T08:48:04;99703.13;;;7.83;47.13
7109;BME280;29079;41.930;25.558;2023-02-02T08:50:43;99717.84;;;8.00;47.91
7109;BME280;29079;41.930;25.558;2023-02-02T08:53:16;99656.03;;;7.74;47.43
7109;BME280;29079;41.930;25.558;2023-02-02T08:55:57;99713.41;;;8.12;47.08
7109;BME280;29079;41.930;25.558;2023-02-02T08:58:32;99692.47;;;8.08;47.58
7109;BME280;29079;41.930;25.558;2023-02-02T09:01:10;99688.72;;;8.10;46.67
7109;BME280;29079;41.930;25.558;2023-02-02T09:03:45;99716.09;;;8.24;45.10
7109;BME280;29079;41.930;25.558;2023-02-02T09:06:19;99713.69;;;8.32;46.26
7109;BME280;29079;41.930;25.558;2023-02-02T09:08:53;99707.28;;;8.34;46.10
7109;BME280;29079;41.930;25.558;2023-02-02T09:11:26;99702.47;;;8.40;45.57
7109;BME280;29079;41.930;25.558;2023-02-02T09:14:01;99704.03;;;8.42;45.55
7109;BME280;29079;41.930;25.558;2023-02-02T09:16:39;99708.28;;;8.45;45.24
7109;BME280;29079;41.930;25.558;2023-02-02T09:19:13;99700.31;;;8.45;45.39
7109;BME280;29079;41.930;25.558;2023-02-02T09:21:48;99705.78;;;8.54;44.85
7109;BME280;29079;41.930;25.558;2023-02-02T09:24:21;99698.75;;;8.53;45.09
7109;BME280;29079;41.930;25.558;2023-02-02T09:26:55;99699.63;;;8.54;45.46
7109;BME280;29079;41.930;25.558;2023-02-02T09:29:29;99696.97;;;8.54;45.22
7109;BME280;29079;41.930;25.558;2023-02-02T09:32:04;99699.97;;;8.61;44.93
7109;BME280;29079;41.930;25.558;2023-02-02T09:34:37;99710.50;;;8.62;43.69
7109;BME280;29079;41.930;25.558;2023-02-02T09:37:12;99716.41;;;8.54;44.17
7109;BME280;29079;41.930;25.558;2023-02-02T09:39:45;99704.94;;;8.65;43.45
7109;BME280;29079;41.930;25.558;2023-02-02T09:42:30;99685.34;;;8.66;44.00
7109;BME280;29079;41.930;25.558;2023-02-02T09:45:12;99699.50;;;8.56;44.10
7109;BME280;29079;41.930;25.558;2023-02-02T09:47:54;99682.69;;;8.55;44.00
7109;BME280;29079;41.930;25.558;2023-02-02T09:50:42;99680.03;;;8.66;42.96
7109;BME280;29079;41.930;25.558;2023-02-02T09:53:28;99677.25;;;8.79;43.43
7109;BME280;29079;41.930;25.558;2023-02-02T09:56:14;99679.19;;;8.77;43.34
7109;BME280;29079;41.930;25.558;2023-02-02T09:58:52;99670.22;;;8.78;42.68
7109;BME280;29079;41.930;25.558;2023-02-02T10:01:29;99663.56;;;8.84;43.21
7109;BME280;29079;41.930;25.558;2023-02-02T10:04:13;99652.81;;;8.85;42.42
7109;BME280;29079;41.930;25.558;2023-02-02T10:06:49;99636.63;;;8.77;42.60
7109;BME280;29079;41.930;25.558;2023-02-02T10:09:30;99648.69;;;8.93;42.69
7109;BME280;29079;41.930;25.558;2023-02-02T10:12:18;99636.84;;;8.97;43.66
7109;BME280;29079;41.930;25.558;2023-02-02T10:14:56;99635.72;;;9.11;42.54
7109;BME280;29079;41.930;25.558;2023-02-02T10:17:38;99643.34;;;9.15;42.50
7109;BME280;29079;41.930;25.558;2023-02-02T10:20:21;99638.22;;;9.23;41.77
7109;BME280;29079;41.930;25.558;2023-02-02T10:23:05;99632.69;;;9.15;40.28
7109;BME280;29079;41.930;25.558;2023-02-02T10:25:47;99629.41;;;9.23;40.48
7109;BME280;29079;41.930;25.558;2023-02-02T10:28:43;99631.19;;;9.34;40.47
7109;BME280;29079;41.930;25.558;2023-02-02T10:31:25;99613.78;;;9.30;40.03
7109;BME280;29079;41.930;25.558;2023-02-02T10:34:12;99571.47;;;9.04;40.13
7109;BME280;29079;41.930;25.558;2023-02-02T10:36:58;99627.63;;;9.45;40.15
7109;BME280;29079;41.930;25.558;2023-02-02T10:39:43;99625.94;;;9.44;39.68
7109;BME280;29079;41.930;25.558;2023-02-02T10:42:27;99617.19;;;9.53;39.80
7109;BME280;29079;41.930;25.558;2023-02-02T10:45:09;99614.28;;;9.56;39.80
7109;BME280;29079;41.930;25.558;2023-02-02T10:47:45;99613.41;;;9.55;39.13
7109;BME280;29079;41.930;25.558;2023-02-02T10:50:19;99618.50;;;9.58;39.08
7109;BME280;29079;41.930;25.558;2023-02-02T10:53:02;99611.94;;;9.63;39.81
7109;BME280;29079;41.930;25.558;2023-02-02T10:55:46;99604.28;;;9.69;40.07
7109;BME280;29079;41.930;25.558;2023-02-02T10:58:26;99598.25;;;9.67;39.15
7109;BME280;29079;41.930;25.558;2023-02-02T11:01:01;99592.00;;;9.78;39.80
7109;BME280;29079;41.930;25.558;2023-02-02T11:03:38;99597.59;;;9.75;40.39
7109;BME280;29079;41.930;25.558;2023-02-02T11:06:12;99590.63;;;9.84;38.10
7109;BME280;29079;41.930;25.558;2023-02-02T11:09:11;99596.66;;;9.86;38.24
7109;BME280;29079;41.930;25.558;2023-02-02T11:11:50;99587.31;;;9.91;38.48
7109;BME280;29079;41.930;25.558;2023-02-02T11:14:29;99585.94;;;9.97;37.49
7109;BME280;29079;41.930;25.558;2023-02-02T11:17:19;99581.13;;;9.91;36.53
7109;BME280;29079;41.930;25.558;2023-02-02T11:19:53;99587.63;;;9.98;37.19
7109;BME280;29079;41.930;25.558;2023-02-02T11:22:30;99573.97;;;9.91;38.08
7109;BME280;29079;41.930;25.558;2023-02-02T11:25:22;99586.47;;;9.91;40.00
7109;BME280;29079;41.930;25.558;2023-02-02T11:28:00;99568.38;;;9.94;38.65
7109;BME280;29079;41.930;25.558;2023-02-02T11:30:36;99570.53;;;10.01;38.71
7109;BME280;29079;41.930;25.558;2023-02-02T11:33:24;99565.22;;;10.01;39.45
7109;BME280;29079;41.930;25.558;2023-02-02T11:36:00;99562.28;;;10.04;39.20
7109;BME280;29079;41.930;25.558;2023-02-02T11:38:35;99553.41;;;10.03;39.40
7109;BME280;29079;41.930;25.558;2023-02-02T11:41:10;99560.38;;;10.16;40.00
7109;BME280;29079;41.930;25.558;2023-02-02T11:43:48;99561.47;;;10.13;39.27
7109;BME280;29079;41.930;25.558;2023-02-02T11:46:24;99549.25;;;10.10;39.77
7109;BME280;29079;41.930;25.558;2023-02-02T11:49:02;99546.44;;;10.12;39.83
7109;BME280;29079;41.930;25.558;2023-02-02T11:51:36;99546.72;;;10.09;40.29
7109;BME280;29079;41.930;25.558;2023-02-02T11:54:15;99536.31;;;10.06;39.85
7109;BME280;29079;41.930;25.558;2023-02-02T11:56:52;99542.84;;;10.23;39.49
7109;BME280;29079;41.930;25.558;2023-02-02T11:59:32;99526.94;;;10.11;39.75
7109;BME280;29079;41.930;25.558;2023-02-02T12:02:25;99531.31;;;10.13;40.09
7109;BME280;29079;41.930;25.558;2023-02-02T12:05:25;99527.00;;;10.21;39.84
7109;BME280;29079;41.930;25.558;2023-02-02T12:08:04;99525.03;;;10.23;39.38
7109;BME280;29079;41.930;25.558;2023-02-02T12:10:43;99521.25;;;10.26;38.73
7109;BME280;29079;41.930;25.558;2023-02-02T12:13:29;99516.31;;;10.21;39.34
7109;BME280;29079;41.930;25.558;2023-02-02T12:16:18;99511.06;;;10.10;39.92
7109;BME280;29079;41.930;25.558;2023-02-02T12:19:01;99513.25;;;9.95;41.12
7109;BME280;29079;41.930;25.558;2023-02-02T12:21:42;99511.72;;;9.71;42.62
7109;BME280;29079;41.930;25.558;2023-02-02T12:24:28;99518.25;;;9.88;40.51
7109;BME280;29079;41.930;25.558;2023-02-02T12:27:14;99503.44;;;9.96;39.00
7109;BME280;29079;41.930;25.558;2023-02-02T12:30:09;99499.03;;;9.85;40.26
7109;BME280;29079;41.930;25.558;2023-02-02T12:32:59;99497.16;;;9.75;40.98
7109;BME280;29079;41.930;25.558;2023-02-02T12:35:57;99480.53;;;9.62;41.87
7109;BME280;29079;41.930;25.558;2023-02-02T12:38:46;99493.59;;;9.96;40.41
7109;BME280;29079;41.930;25.558;2023-02-02T12:41:37;99493.25;;;10.10;39.15
7109;BME280;29079;41.930;25.558;2023-02-02T12:44:17;99499.72;;;10.08;38.79
7109;BME280;29079;41.930;25.558;2023-02-02T12:47:05;99443.91;;;9.85;38.57
7109;BME280;29079;41.930;25.558;2023-02-02T12:50:03;99495.06;;;10.10;38.99
7109;BME280;29079;41.930;25.558;2023-02-02T12:52:53;99481.47;;;10.13;38.00
7109;BME280;29079;41.930;25.558;2023-02-02T12:55:35;99489.56;;;10.02;39.48
7109;BME280;29079;41.930;25.558;2023-02-02T12:58:20;99486.34;;;9.98;39.53
7109;BME280;29079;41.930;25.558;2023-02-02T13:01:06;99485.31;;;9.89;39.54
7109;BME280;29079;41.930;25.558;2023-02-02T13:04:18;99488.69;;;9.91;40.27
7109;BME280;29079;41.930;25.558;2023-02-02T13:07:13;99481.97;;;9.97;39.01
7109;BME280;29079;41.930;25.558;2023-02-02T13:10:00;99466.31;;;9.83;39.62
7109;BME280;29079;41.930;25.558;2023-02-02T13:12:40;99480.16;;;9.98;39.11
7109;BME280;29079;41.930;25.558;2023-02-02T13:15:18;99480.25;;;9.86;40.04
7109;BME280;29079;41.930;25.558;2023-02-02T13:17:57;99471.78;;;9.81;40.06
7109;BME280;29079;41.930;25.558;2023-02-02T13:20:37;99473.56;;;9.71;41.56
7109;BME280;29079;41.930;25.558;2023-02-02T13:23:17;99465.06;;;9.56;42.20
7109;BME280;29079;41.930;25.558;2023-02-02T13:25:56;99462.06;;;9.70;40.66
7109;BME280;29079;41.930;25.558;2023-02-02T13:28:37;99462.28;;;9.57;41.23
7109;BME280;29079;41.930;25.558;2023-02-02T13:31:16;99463.72;;;9.62;41.51
7109;BME280;29079;41.930;25.558;2023-02-02T13:33:56;99458.13;;;9.96;39.36
7109;BME280;29079;41.930;25.558;2023-02-02T13:36:34;99464.72;;;10.01;38.68
7109;BME280;29079;41.930;25.558;2023-02-02T13:39:14;99466.53;;;9.91;39.45
7109;BME280;29079;41.930;25.558;2023-02-02T13:41:51;99456.41;;;9.94;39.26
7109;BME280;29079;41.930;25.558;2023-02-02T13:44:29;99459.97;;;10.05;38.80
7109;BME280;29079;41.930;25.558;2023-02-02T13:47:08;99453.50;;;9.98;39.75
7109;BME280;29079;41.930;25.558;2023-02-02T13:49:45;99451.34;;;9.91;40.25
7109;BME280;29079;41.930;25.558;2023-02-02T13:52:40;99453.31;;;9.89;40.74
7109;BME280;29079;41.930;25.558;2023-02-02T13:55:36;99452.03;;;9.84;41.08
7109;BME280;29079;41.930;25.558;2023-02-02T14:01:19;99453.31;;;9.58;42.47
7109;BME280;29079;41.930;25.558;2023-02-02T14:03:55;99444.66;;;9.66;41.93
7109;BME280;29079;41.930;25.558;2023-02-02T14:06:50;99436.34;;;9.59;42.76
7109;BME280;29079;41.930;25.558;2023-02-02T14:09:30;99435.91;;;9.54;42.77
7109;BME280;29079;41.930;25.558;2023-02-02T14:12:07;99420.53;;;9.37;44.05